Time;durP1;ratioP1;P1;durP2;ratioP2;P2;SDS_P1;SDS_P2;PMS_P1;PMS_P2;Temp;Humidity;BMP_temperature;BMP_pressure;BME280_temperature;BME280_humidity;BME280_pressure;Samples;Min_cycle;Max_cycle;Signal;HPM_P1;HPM_P2
2021/06/01 04:12:08;;;;;;;0.60;0.60;;;12.70;99.90;;;;;;5122027;23;20283;-75
2021/06/01 04:14:35;;;;;;;0.60;0.60;;;12.80;99.90;;;;;;4896889;29;20672;-73
2021/06/01 04:17:03;;;;;;;0.60;0.60;;;12.80;99.90;;;;;;4896489;29;20267;-73
2021/06/01 04:19:32;;;;;;;0.60;0.60;;;12.80;99.90;;;;;;4896987;29;20665;-73
2021/06/01 04:22:00;;;;;;;0.60;0.60;;;12.90;99.90;;;;;;4882531;29;20227;-73
2021/06/01 04:24:28;;;;;;;0.50;0.50;;;13.00;99.90;;;;;;4877867;29;20204;-75
2021/06/01 04:26:56;;;;;;;0.50;0.50;;;13.10;99.90;;;;;;4877450;29;20211;-75
2021/06/01 04:29:25;;;;;;;0.60;0.60;;;13.20;99.90;;;;;;4877913;29;20260;-76
2021/06/01 04:31:53;;;;;;;0.68;0.68;;;13.00;99.90;;;;;;4878912;29;20224;-77
2021/06/01 04:34:20;;;;;;;0.60;0.60;;;13.20;99.90;;;;;;4878786;29;20212;-75
2021/06/01 04:36:48;;;;;;;0.60;0.60;;;13.20;99.90;;;;;;4878381;29;20276;-76
2021/06/01 04:39:15;;;;;;;0.60;0.60;;;13.30;99.90;;;;;;4877989;29;20625;-75
2021/06/01 04:41:42;;;;;;;0.60;0.60;;;13.40;99.90;;;;;;4877739;29;20271;-75
2021/06/01 04:44:10;;;;;;;0.50;0.50;;;13.40;99.90;;;;;;4877930;29;20745;-76
2021/06/01 04:46:38;;;;;;;0.60;0.60;;;13.40;99.90;;;;;;4877324;29;20204;-76
2021/06/01 04:49:06;;;;;;;0.50;0.50;;;13.40;99.90;;;;;;4877563;29;20204;-75
2021/06/01 04:51:33;;;;;;;0.50;0.50;;;13.50;99.90;;;;;;4875011;29;20288;-76
2021/06/01 04:54:01;;;;;;;0.60;0.60;;;13.50;99.90;;;;;;4877881;29;20309;-76
2021/06/01 04:56:29;;;;;;;0.60;0.60;;;13.50;99.90;;;;;;4879510;29;20204;-76
2021/06/01 04:58:57;;;;;;;0.50;0.50;;;13.40;99.90;;;;;;4881111;29;20207;-76
2021/06/01 05:01:25;;;;;;;0.50;0.50;;;13.60;99.90;;;;;;4881128;29;20224;-76
2021/06/01 05:03:54;;;;;;;0.50;0.50;;;13.70;99.90;;;;;;4881118;29;20252;-77
2021/06/01 05:06:21;;;;;;;0.40;0.40;;;13.80;99.90;;;;;;4880578;29;20205;-76
2021/06/01 05:08:49;;;;;;;0.52;0.52;;;13.90;99.90;;;;;;4880605;29;20204;-75
2021/06/01 05:11:17;;;;;;;0.50;0.50;;;13.90;99.90;;;;;;4880673;29;20284;-75
2021/06/01 05:13:44;;;;;;;0.50;0.50;;;13.90;99.90;;;;;;4880745;29;20283;-75
2021/06/01 05:16:11;;;;;;;0.50;0.50;;;13.90;99.90;;;;;;4880933;29;20211;-75
2021/06/01 05:18:39;;;;;;;0.50;0.50;;;14.10;99.90;;;;;;4881089;29;20264;-78
2021/06/01 05:21:08;;;;;;;0.50;0.50;;;14.10;99.90;;;;;;4881500;29;20389;-76
2021/06/01 05:23:36;;;;;;;0.60;0.60;;;14.20;99.90;;;;;;4880822;29;20204;-76
2021/06/01 05:26:04;;;;;;;0.40;0.40;;;14.30;99.90;;;;;;4880880;29;20256;-76
2021/06/01 05:28:31;;;;;;;0.50;0.50;;;14.40;99.90;;;;;;4880127;29;20267;-76
2021/06/01 05:31:09;;;;;;;0.50;0.50;;;14.40;99.90;;;;;;4880825;29;20224;-76
2021/06/01 05:33:38;;;;;;;0.50;0.50;;;14.60;99.90;;;;;;4880742;29;20243;-76
2021/06/01 05:36:07;;;;;;;0.40;0.40;;;14.50;99.90;;;;;;4880384;29;20687;-76
2021/06/01 05:38:34;;;;;;;0.50;0.50;;;14.50;99.90;;;;;;4880595;29;20211;-76
2021/06/01 05:41:02;;;;;;;0.50;0.50;;;14.60;99.90;;;;;;4880452;29;20264;-76
2021/06/01 05:43:30;;;;;;;0.50;0.50;;;14.70;99.90;;;;;;4880321;29;20204;-76
2021/06/01 05:45:58;;;;;;;0.50;0.50;;;14.70;99.90;;;;;;4880438;29;20264;-76
2021/06/01 05:48:25;;;;;;;0.40;0.40;;;14.80;99.90;;;;;;4880240;29;20212;-76
2021/06/01 05:50:55;;;;;;;0.50;0.50;;;14.90;99.90;;;;;;4880630;29;20303;-76
2021/06/01 05:53:24;;;;;;;0.40;0.40;;;15.00;99.90;;;;;;4880263;29;20735;-76
2021/06/01 05:55:53;;;;;;;0.40;0.40;;;15.10;99.90;;;;;;4880383;29;20216;-76
2021/06/01 05:58:21;;;;;;;0.40;0.40;;;15.20;99.90;;;;;;4880364;29;20208;-76
2021/06/01 06:00:50;;;;;;;0.40;0.40;;;15.20;99.90;;;;;;4880126;29;20231;-76
2021/06/01 06:03:18;;;;;;;0.50;0.50;;;15.40;99.90;;;;;;4880197;29;20684;-76
2021/06/01 06:05:46;;;;;;;0.50;0.50;;;15.40;99.40;;;;;;4880186;29;20215;-76
2021/06/01 06:08:15;;;;;;;0.40;0.40;;;15.40;99.30;;;;;;4879697;29;20261;-76
2021/06/01 06:10:46;;;;;;;0.50;0.50;;;15.50;99.00;;;;;;4880073;29;20235;-76
2021/06/01 06:13:14;;;;;;;0.40;0.40;;;15.50;99.00;;;;;;4880024;29;20655;-76
2021/06/01 06:15:42;;;;;;;0.40;0.40;;;15.50;99.00;;;;;;4879703;29;20264;-76
2021/06/01 06:18:18;;;;;;;0.40;0.40;;;15.60;99.00;;;;;;4880099;29;20208;-77
2021/06/01 06:20:45;;;;;;;0.50;0.50;;;15.60;98.70;;;;;;4880124;29;20258;-76
2021/06/01 06:23:13;;;;;;;0.50;0.50;;;15.70;98.90;;;;;;4879758;29;20204;-77
2021/06/01 06:25:40;;;;;;;0.50;0.50;;;15.70;99.00;;;;;;4879812;29;20212;-76
2021/06/01 06:28:09;;;;;;;0.40;0.40;;;15.80;98.80;;;;;;4879681;29;20280;-77
2021/06/01 06:30:36;;;;;;;0.50;0.50;;;15.90;98.20;;;;;;4879632;29;20711;-75
2021/06/01 06:33:03;;;;;;;0.40;0.40;;;16.00;98.40;;;;;;4879750;29;20224;-75
2021/06/01 06:35:31;;;;;;;0.50;0.50;;;16.10;97.70;;;;;;4879675;29;20235;-75
2021/06/01 06:37:58;;;;;;;0.40;0.40;;;16.20;97.70;;;;;;4879576;29;20208;-75
2021/06/01 06:40:26;;;;;;;0.40;0.40;;;16.30;97.90;;;;;;4879443;29;20208;-75
2021/06/01 06:42:53;;;;;;;0.45;0.45;;;16.30;97.30;;;;;;4879701;29;20570;-75
2021/06/01 06:45:23;;;;;;;0.30;0.30;;;16.40;97.30;;;;;;4879565;29;20548;-75
2021/06/01 06:48:05;;;;;;;0.38;0.38;;;16.40;97.40;;;;;;4879519;29;20260;-76
2021/06/01 06:50:33;;;;;;;0.40;0.40;;;16.50;97.50;;;;;;4879504;29;20228;-75
2021/06/01 06:53:02;;;;;;;0.40;0.40;;;16.50;97.20;;;;;;4879110;29;20231;-75
2021/06/01 06:55:29;;;;;;;0.30;0.30;;;16.60;97.40;;;;;;4879019;29;20607;-75
2021/06/01 06:57:57;;;;;;;0.30;0.30;;;16.70;97.10;;;;;;4879177;29;20208;-75
2021/06/01 07:00:26;;;;;;;0.40;0.40;;;16.90;99.90;;;;;;4879104;29;20734;-75
2021/06/01 07:02:53;;;;;;;0.50;0.50;;;16.90;97.10;;;;;;4879219;29;20200;-75
2021/06/01 07:05:22;;;;;;;0.30;0.30;;;17.00;97.00;;;;;;4879102;29;20302;-75
2021/06/01 07:07:53;;;;;;;0.30;0.30;;;17.00;96.60;;;;;;4879072;29;20244;-75
2021/06/01 07:10:21;;;;;;;0.40;0.40;;;17.00;96.10;;;;;;4879063;29;20216;-75
2021/06/01 07:12:49;;;;;;;0.30;0.30;;;17.00;96.40;;;;;;4879017;29;20685;-76
2021/06/01 07:15:40;;;;;;;0.40;0.40;;;17.20;97.70;;;;;;4878701;29;20256;-76
2021/06/01 07:18:09;;;;;;;0.40;0.40;;;17.30;96.10;;;;;;4878834;29;20212;-76
2021/06/01 07:20:36;;;;;;;0.45;0.45;;;17.30;95.20;;;;;;4878024;29;20263;-76
2021/06/01 07:23:03;;;;;;;0.35;0.35;;;17.30;95.00;;;;;;4878804;29;20255;-76
2021/06/01 07:25:31;;;;;;;0.30;0.30;;;17.30;94.80;;;;;;4878761;29;20638;-76
2021/06/01 07:28:01;;;;;;;0.30;0.30;;;17.40;94.50;;;;;;4878811;29;20638;-76
2021/06/01 07:30:30;;;;;;;0.30;0.30;;;17.50;94.20;;;;;;4878526;29;20216;-76
2021/06/01 07:32:58;;;;;;;0.30;0.30;;;17.60;94.80;;;;;;4878858;29;20265;-76
2021/06/01 07:35:26;;;;;;;0.30;0.30;;;17.60;94.10;;;;;;4878427;29;20208;-76
2021/06/01 07:37:54;;;;;;;0.30;0.30;;;17.70;93.40;;;;;;4878702;29;20242;-76
2021/06/01 07:40:21;;;;;;;0.30;0.30;;;18.10;99.90;;;;;;4878617;29;20264;-76
2021/06/01 07:42:49;;;;;;;0.30;0.30;;;17.80;93.40;;;;;;4878489;29;20726;-75
2021/06/01 07:45:17;;;;;;;0.40;0.40;;;17.80;92.80;;;;;;4878245;29;20207;-75
2021/06/01 07:47:46;;;;;;;0.40;0.40;;;17.90;93.30;;;;;;4878789;29;20208;-75
2021/06/01 07:50:14;;;;;;;0.30;0.30;;;18.00;99.90;;;;;;4878467;29;20630;-76
2021/06/01 07:52:41;;;;;;;0.30;0.30;;;18.00;93.90;;;;;;4878536;29;20208;-76
2021/06/01 07:55:10;;;;;;;0.30;0.30;;;18.10;92.80;;;;;;4878200;29;20231;-75
2021/06/01 07:57:37;;;;;;;0.40;0.40;;;18.20;92.10;;;;;;4878386;29;20204;-76
2021/06/01 08:00:07;;;;;;;0.30;0.30;;;18.30;92.50;;;;;;4878675;29;20227;-76
2021/06/01 08:02:34;;;;;;;0.40;0.40;;;18.40;91.70;;;;;;4878579;29;20232;-76
2021/06/01 08:05:05;;;;;;;0.30;0.30;;;18.40;90.90;;;;;;4878564;29;20744;-76
2021/06/01 08:07:34;;;;;;;0.30;0.30;;;18.50;90.90;;;;;;4878820;29;20208;-76
2021/06/01 08:10:01;;;;;;;0.30;0.30;;;18.60;85.00;;;;;;4878394;29;20268;-76
2021/06/01 08:12:29;;;;;;;0.40;0.40;;;18.70;83.20;;;;;;4878158;29;20295;-76
2021/06/01 08:14:57;;;;;;;0.30;0.30;;;18.70;82.50;;;;;;4878356;29;20223;-76
2021/06/01 08:17:25;;;;;;;0.30;0.30;;;18.80;77.00;;;;;;4878215;29;20236;-76
2021/06/01 08:19:54;;;;;;;0.30;0.30;;;18.90;79.00;;;;;;4878125;29;20674;-76
2021/06/01 08:22:31;;;;;;;0.40;0.40;;;18.90;77.80;;;;;;4878143;29;20228;-76
2021/06/01 08:24:58;;;;;;;0.30;0.30;;;19.10;79.70;;;;;;4878398;29;20184;-76
2021/06/01 08:27:28;;;;;;;0.20;0.20;;;19.20;79.90;;;;;;4877959;29;20698;-76
2021/06/01 08:29:56;;;;;;;0.30;0.30;;;19.30;76.30;;;;;;4878013;29;20204;-76
2021/06/01 08:32:24;;;;;;;0.30;0.30;;;19.30;74.90;;;;;;4881669;29;20232;-76
2021/06/01 08:34:51;;;;;;;0.20;0.20;;;19.50;80.50;;;;;;4881754;29;20251;-77
2021/06/01 08:37:19;;;;;;;0.30;0.30;;;19.60;76.20;;;;;;4881509;29;20636;-76
2021/06/01 08:39:47;;;;;;;0.30;0.30;;;19.70;76.60;;;;;;4881700;29;20208;-77
2021/06/01 08:42:15;;;;;;;0.30;0.30;;;19.90;74.40;;;;;;4881706;29;20232;-76
2021/06/01 08:44:42;;;;;;;0.30;0.30;;;20.10;74.70;;;;;;4881567;29;20264;-77
2021/06/01 08:47:10;;;;;;;0.30;0.30;;;20.30;71.60;;;;;;4881515;29;20253;-76
2021/06/01 08:49:38;;;;;;;0.30;0.30;;;20.30;70.70;;;;;;4881458;29;20296;-76
2021/06/01 08:52:06;;;;;;;0.30;0.30;;;20.40;70.50;;;;;;4881450;29;20284;-76
2021/06/01 08:54:33;;;;;;;0.30;0.30;;;20.40;71.70;;;;;;4881575;29;20227;-77
2021/06/01 08:57:03;;;;;;;0.30;0.30;;;20.40;72.50;;;;;;4881162;29;20215;-76
2021/06/01 08:59:30;;;;;;;0.30;0.30;;;20.40;72.10;;;;;;4881398;29;20219;-77
2021/06/01 09:01:59;;;;;;;0.30;0.30;;;20.60;71.80;;;;;;4881272;29;20257;-77
2021/06/01 09:04:42;;;;;;;0.30;0.30;;;20.80;71.60;;;;;;4881137;29;20291;-76
2021/06/01 09:07:21;;;;;;;0.25;0.25;;;20.90;71.50;;;;;;4881019;29;20683;-76
2021/06/01 09:10:19;;;;;;;0.30;0.30;;;20.90;69.50;;;;;;4881257;29;20212;-76
2021/06/01 09:13:32;;;;;;;0.30;0.30;;;21.00;71.00;;;;;;4881134;29;20670;-76
2021/06/01 09:21:40;;;;;;;0.30;0.30;;;20.90;71.10;;;;;;4880871;29;20232;-76
2021/06/01 09:24:07;;;;;;;0.30;0.30;;;20.90;71.30;;;;;;4880948;29;20204;-76
2021/06/01 09:26:40;;;;;;;0.20;0.20;;;20.90;70.60;;;;;;4880644;29;20208;-76
2021/06/01 09:29:09;;;;;;;0.20;0.20;;;21.00;71.50;;;;;;4880902;29;20264;-77
2021/06/01 09:31:36;;;;;;;0.20;0.20;;;21.00;70.70;;;;;;4880651;29;20714;-76
2021/06/01 09:34:04;;;;;;;0.20;0.20;;;21.10;73.50;;;;;;4880941;29;20230;-76
2021/06/01 09:36:31;;;;;;;0.30;0.30;;;21.30;70.50;;;;;;4880634;29;20256;-76
2021/06/01 09:38:59;;;;;;;0.20;0.20;;;21.30;71.90;;;;;;4880919;29;20208;-76
2021/06/01 09:41:28;;;;;;;0.20;0.20;;;21.50;71.80;;;;;;4880461;29;20256;-76
2021/06/01 09:43:57;;;;;;;0.28;0.28;;;21.40;69.70;;;;;;4879900;29;20204;-76
2021/06/01 09:46:27;;;;;;;0.20;0.20;;;21.50;70.30;;;;;;4880447;29;20208;-76
2021/06/01 09:48:57;;;;;;;0.20;0.20;;;21.50;67.90;;;;;;4880557;29;20212;-76
2021/06/01 09:51:26;;;;;;;0.30;0.30;;;21.60;68.80;;;;;;4880689;29;20370;-76
2021/06/01 09:53:56;;;;;;;0.30;0.30;;;21.70;66.90;;;;;;4880417;29;20228;-76
2021/06/01 09:56:23;;;;;;;0.30;0.30;;;21.80;68.10;;;;;;4880054;29;20260;-76
2021/06/01 09:58:51;;;;;;;0.20;0.20;;;21.90;67.20;;;;;;4880456;29;20265;-76
2021/06/01 10:01:18;;;;;;;0.20;0.20;;;22.00;66.90;;;;;;4880342;29;20228;-76
2021/06/01 10:03:50;;;;;;;0.30;0.30;;;22.10;66.80;;;;;;4880423;29;20204;-76
2021/06/01 10:06:18;;;;;;;0.20;0.20;;;22.10;65.40;;;;;;4880828;29;20208;-77
2021/06/01 10:08:48;;;;;;;0.20;0.20;;;22.20;65.40;;;;;;4882081;29;20239;-77
2021/06/01 10:11:16;;;;;;;0.20;0.20;;;22.40;65.60;;;;;;4881822;29;20251;-77
2021/06/01 10:13:44;;;;;;;0.20;0.20;;;22.40;67.00;;;;;;4882391;29;20749;-77
2021/06/01 10:16:15;;;;;;;0.20;0.20;;;22.40;66.80;;;;;;4882188;29;20211;-77
2021/06/01 10:18:43;;;;;;;0.20;0.20;;;22.50;66.70;;;;;;4882440;29;20243;-76
2021/06/01 10:21:14;;;;;;;0.20;0.20;;;22.40;64.90;;;;;;4882648;29;20228;-77
2021/06/01 10:23:43;;;;;;;0.20;0.20;;;22.40;64.60;;;;;;4882954;29;20211;-78
2021/06/01 10:26:13;;;;;;;0.20;0.20;;;22.40;66.10;;;;;;4881904;29;20216;-77
2021/06/01 10:28:44;;;;;;;0.20;0.20;;;22.20;64.60;;;;;;4882332;29;20638;-78
2021/06/01 10:31:13;;;;;;;0.25;0.25;;;22.10;65.70;;;;;;4882379;29;20228;-77
2021/06/01 10:33:44;;;;;;;0.20;0.20;;;22.10;65.20;;;;;;4883067;29;20212;-77
2021/06/01 10:42:26;;;;;;;0.20;0.20;;;22.20;66.20;;;;;;4882351;29;20244;-77
2021/06/01 10:44:52;;;;;;;0.20;0.20;;;22.10;66.10;;;;;;4881270;29;20200;-77
2021/06/01 10:50:33;;;;;;;0.25;0.25;;;22.20;67.40;;;;;;4880866;29;20212;-77
2021/06/01 10:53:07;;;;;;;0.20;0.20;;;22.40;65.50;;;;;;4881286;29;20212;-77
2021/06/01 10:55:57;;;;;;;0.20;0.20;;;22.50;65.90;;;;;;4880135;29;20223;-77
2021/06/01 10:58:28;;;;;;;0.20;0.20;;;22.50;65.90;;;;;;4882166;29;20272;-78
2021/06/01 11:04:09;;;;;;;0.20;0.20;;;22.70;64.10;;;;;;4882480;29;20211;-76
2021/06/01 11:07:25;;;;;;;0.20;0.20;;;22.70;65.00;;;;;;4881733;29;20215;-76
2021/06/01 11:09:55;;;;;;;0.20;0.20;;;22.40;64.60;;;;;;4882046;29;20643;-77
2021/06/01 11:12:41;;;;;;;0.20;0.20;;;22.60;65.90;;;;;;4881432;29;20284;-77
2021/06/01 11:15:42;;;;;;;0.20;0.20;;;23.40;66.70;;;;;;4882037;29;20231;-77
2021/06/01 11:18:22;;;;;;;0.20;0.20;;;22.70;66.20;;;;;;4823628;29;20210;-78
2021/06/01 11:21:11;;;;;;;0.20;0.20;;;22.80;66.40;;;;;;4822871;29;20281;-77
2021/06/01 11:33:19;;;;;;;0.20;0.20;;;23.20;71.80;;;;;;4880591;29;20207;-77
2021/06/01 11:35:55;;;;;;;0.20;0.20;;;23.40;93.00;;;;;;4880238;29;20236;-76
2021/06/01 11:38:27;;;;;;;0.20;0.20;;;23.30;66.60;;;;;;4880346;29;20212;-75
2021/06/01 11:43:39;;;;;;;0.20;0.20;;;23.40;64.70;;;;;;4880494;29;20287;-75
2021/06/01 11:46:11;;;;;;;0.20;0.20;;;23.20;64.80;;;;;;4880135;29;20204;-77
2021/06/01 11:51:31;;;;;;;0.20;0.20;;;23.50;64.00;;;;;;4879856;29;20717;-77
2021/06/01 11:54:02;;;;;;;0.20;0.20;;;23.40;65.30;;;;;;4880245;29;20204;-77
2021/06/01 11:56:44;;;;;;;0.20;0.20;;;23.40;67.80;;;;;;4879878;29;20232;-77
2021/06/01 12:02:10;;;;;;;0.20;0.20;;;23.40;64.80;;;;;;4879985;29;20227;-75
2021/06/01 12:04:48;;;;;;;0.20;0.20;;;23.40;64.80;;;;;;4879597;29;20574;-76
2021/06/01 12:18:36;;;;;;;0.20;0.20;;;23.50;65.80;;;;;;4880305;29;20207;-77
2021/06/01 12:21:05;;;;;;;0.20;0.20;;;23.50;64.70;;;;;;4879861;29;20267;-77
2021/06/01 12:23:34;;;;;;;0.20;0.20;;;23.60;66.30;;;;;;4879834;29;20212;-77
2021/06/01 12:26:07;;;;;;;0.20;0.20;;;23.90;68.90;;;;;;4879615;29;20295;-76
2021/06/01 12:31:25;;;;;;;0.20;0.20;;;24.10;66.70;;;;;;4879956;29;20260;-77
2021/06/01 12:34:00;;;;;;;0.20;0.20;;;24.20;65.60;;;;;;4880020;29;20745;-77
2021/06/01 12:42:33;;;;;;;0.20;0.20;;;24.70;64.60;;;;;;4879356;29;20806;-77
2021/06/01 12:45:01;;;;;;;0.20;0.20;;;24.70;61.90;;;;;;4879418;29;20670;-77
2021/06/01 13:05:16;;;;;;;0.20;0.20;;;24.70;62.60;;;;;;4879565;29;20216;-76
2021/06/01 13:05:46;;;;;;;0.20;0.20;;;25.20;59.80;;;;;;4878951;29;20712;-76
2021/06/01 13:19:43;;;;;;;0.20;0.20;;;24.30;59.30;;;;;;4881470;29;20204;-76
2021/06/01 13:31:22;;;;;;;0.20;0.20;;;24.70;59.70;;;;;;4880873;29;20224;-76
2021/06/01 13:36:48;;;;;;;0.10;0.10;;;24.80;59.30;;;;;;4880616;29;20228;-76
2021/06/01 13:39:34;;;;;;;0.20;0.20;;;24.90;58.60;;;;;;4880693;29;20255;-76
2021/06/01 13:47:47;;;;;;;0.20;0.20;;;25.10;59.90;;;;;;4880501;29;20269;-76
2021/06/01 13:50:25;;;;;;;0.20;0.20;;;25.10;59.70;;;;;;4880653;29;20208;-76
2021/06/01 13:53:06;;;;;;;0.20;0.20;;;25.00;58.90;;;;;;4880595;29;20208;-76
2021/06/01 13:55:39;;;;;;;0.10;0.10;;;24.80;60.70;;;;;;4880295;29;20224;-74
2021/06/01 14:01:09;;;;;;;0.20;0.20;;;24.70;60.00;;;;;;4841093;29;20240;-74
2021/06/01 14:31:51;;;;;;;0.20;0.20;;;24.30;63.70;;;;;;5130164;28;20722;-76
2021/06/01 15:08:35;;;;;;;0.10;0.10;;;23.80;61.40;;;;;;5129415;27;20652;-76
2021/06/01 15:31:09;;;;;;;0.10;0.10;;;24.00;63.00;;;;;;5129212;27;20211;-76
2021/06/01 15:47:48;;;;;;;0.20;0.20;;;24.40;62.90;;;;;;5115136;28;20208;-76
2021/06/01 15:50:21;;;;;;;0.10;0.10;;;24.40;63.20;;;;;;5115010;28;20208;-76
2021/06/01 16:23:51;;;;;;;0.20;0.20;;;24.20;63.70;;;;;;5116191;28;20200;-77
2021/06/01 16:32:02;;;;;;;0.20;0.20;;;23.50;63.50;;;;;;5094310;28;20588;-76
2021/06/01 16:43:14;;;;;;;0.20;0.20;;;22.70;64.30;;;;;;5104114;28;20293;-76
2021/06/01 17:05:12;;;;;;;0.20;0.20;;;22.40;65.80;;;;;;5093138;28;20671;-76
2021/06/01 17:07:58;;;;;;;0.20;0.20;;;22.40;65.80;;;;;;5093037;28;20200;-76
2021/06/01 17:13:15;;;;;;;0.20;0.20;;;22.40;65.60;;;;;;5093200;28;20197;-75
2021/06/01 17:15:42;;;;;;;0.20;0.20;;;22.40;66.60;;;;;;5092711;28;20687;-76
2021/06/01 17:18:18;;;;;;;0.20;0.20;;;22.40;66.20;;;;;;5092933;28;20718;-76
2021/06/01 17:21:20;;;;;;;0.20;0.20;;;22.40;64.60;;;;;;5092805;28;20256;-75
2021/06/01 17:23:59;;;;;;;0.20;0.20;;;22.40;66.00;;;;;;5092853;28;20269;-75
2021/06/01 17:34:57;;;;;;;0.20;0.20;;;22.20;66.70;;;;;;5093306;28;20208;-75
2021/06/01 17:37:25;;;;;;;0.17;0.17;;;22.10;66.20;;;;;;5092818;28;20201;-76
2021/06/01 17:39:53;;;;;;;0.20;0.20;;;22.20;70.60;;;;;;5093180;28;20200;-76
2021/06/01 17:42:25;;;;;;;0.20;0.20;;;22.20;66.80;;;;;;5093616;28;20220;-76
2021/06/01 17:44:53;;;;;;;0.20;0.20;;;22.10;67.60;;;;;;5092622;28;20665;-76
2021/06/01 17:47:53;;;;;;;0.20;0.20;;;22.10;67.80;;;;;;5103233;28;20260;-78
2021/06/01 17:50:24;;;;;;;0.20;0.20;;;22.10;66.80;;;;;;5107375;28;20196;-78
2021/06/01 17:52:55;;;;;;;0.20;0.20;;;22.10;72.50;;;;;;5107674;28;20189;-78
2021/06/01 17:55:24;;;;;;;0.20;0.20;;;22.10;70.60;;;;;;5108399;28;20539;-77
2021/06/01 17:57:53;;;;;;;0.20;0.20;;;22.00;67.50;;;;;;5092240;28;20252;-76
2021/06/01 18:00:22;;;;;;;0.20;0.20;;;22.00;67.00;;;;;;5092527;28;20257;-76
2021/06/01 18:02:50;;;;;;;0.20;0.20;;;21.90;69.10;;;;;;5092259;28;20775;-79
2021/06/01 18:05:21;;;;;;;0.20;0.20;;;21.90;71.30;;;;;;5092381;28;20246;-76
2021/06/01 18:07:56;;;;;;;0.30;0.30;;;21.90;74.40;;;;;;5092458;28;20200;-76
2021/06/01 18:14:00;;;;;;;0.20;0.20;;;21.90;71.80;;;;;;5089978;28;20200;-74
2021/06/01 19:21:24;;;;;;;0.25;0.25;;;19.90;85.00;;;;;;5115546;28;20219;-77
2021/06/01 19:43:33;;;;;;;0.25;0.25;;;19.40;88.50;;;;;;5115631;28;20237;-76
2021/06/01 19:51:33;;;;;;;0.20;0.20;;;19.40;90.30;;;;;;5114745;28;20219;-76
2021/06/01 19:54:03;;;;;;;0.20;0.20;;;19.40;91.00;;;;;;5114890;28;20284;-77
2021/06/01 19:56:36;;;;;;;0.20;0.20;;;19.40;92.10;;;;;;5114726;27;20557;-76
2021/06/01 19:59:04;;;;;;;0.20;0.20;;;19.40;92.90;;;;;;5114972;28;20589;-76
2021/06/01 20:01:32;;;;;;;0.20;0.20;;;19.30;93.50;;;;;;5114615;28;20220;-76
2021/06/01 20:04:00;;;;;;;0.20;0.20;;;19.30;94.10;;;;;;5114404;28;20757;-76
2021/06/01 20:06:28;;;;;;;0.20;0.20;;;19.30;91.00;;;;;;5114409;28;20224;-76
2021/06/01 20:08:55;;;;;;;0.20;0.20;;;19.20;90.90;;;;;;5114477;28;20245;-77
2021/06/01 20:11:24;;;;;;;0.28;0.28;;;19.20;91.20;;;;;;5113691;28;20215;-76
2021/06/01 20:13:51;;;;;;;0.20;0.20;;;19.20;91.50;;;;;;5114618;28;20283;-76
2021/06/01 20:16:23;;;;;;;0.30;0.30;;;;;;;;;;5113322;28;20208;-77
2021/06/01 20:18:52;;;;;;;0.20;0.20;;;19.20;91.80;;;;;;5113483;28;20200;-75
2021/06/01 20:21:21;;;;;;;0.30;0.30;;;19.20;92.10;;;;;;5112376;28;20255;-76
2021/06/01 20:23:57;;;;;;;0.30;0.30;;;19.20;91.90;;;;;;5113920;28;20284;-77
2021/06/01 20:26:28;;;;;;;0.30;0.30;;;19.10;92.40;;;;;;5114151;28;20617;-75
2021/06/01 20:29:03;;;;;;;0.20;0.20;;;19.10;92.60;;;;;;5112590;28;20203;-76
2021/06/01 20:31:32;;;;;;;0.30;0.30;;;19.10;92.70;;;;;;5112369;28;20223;-76
2021/06/01 20:34:02;;;;;;;0.20;0.20;;;19.10;92.60;;;;;;5112337;28;20207;-77
2021/06/01 20:36:29;;;;;;;0.20;0.20;;;19.00;93.00;;;;;;5112045;28;20204;-76
2021/06/01 20:39:01;;;;;;;0.30;0.30;;;19.00;93.50;;;;;;5112521;28;20566;-76
2021/06/01 20:41:31;;;;;;;0.20;0.20;;;18.90;93.10;;;;;;5112792;28;20224;-75
2021/06/01 20:43:59;;;;;;;0.30;0.30;;;18.70;94.50;;;;;;5113185;28;20228;-76
2021/06/01 20:46:26;;;;;;;0.20;0.20;;;18.60;93.50;;;;;;5113802;28;20208;-76
2021/06/01 20:48:56;;;;;;;0.22;0.22;;;18.60;93.90;;;;;;5113842;28;20192;-76
2021/06/01 20:51:24;;;;;;;0.30;0.30;;;18.60;94.30;;;;;;5113135;28;20223;-76
2021/06/01 20:53:52;;;;;;;0.20;0.20;;;18.70;94.30;;;;;;5113104;28;20245;-76
2021/06/01 20:56:25;;;;;;;0.20;0.20;;;18.70;94.60;;;;;;5112818;28;20725;-76
2021/06/01 20:58:57;;;;;;;0.30;0.30;;;18.60;94.80;;;;;;5113592;28;20232;-76
